sensor_id;sensor_type;location;lat;lon;timestamp;pressure;altitude;pressure_sealevel;temperature;humidity
18985;BME280;9626;52.552;13.436;2023-07-31T00:01:26;100519.34;;;15.69;100.00
18985;BME280;9626;52.552;13.436;2023-07-31T00:03:52;100518.56;;;15.67;100.00
18985;BME280;9626;52.552;13.436;2023-07-31T00:06:18;100515.66;;;15.71;100.00
18985;BME280;9626;52.552;13.436;2023-07-31T00:08:44;100506.00;;;15.69;100.00
18985;BME280;9626;52.552;13.436;2023-07-31T00:11:10;100505.38;;;15.62;100.00
18985;BME280;9626;52.552;13.436;2023-07-31T00:13:36;100516.94;;;15.63;100.00
18985;BME280;9626;52.552;13.436;2023-07-31T00:16:02;100515.59;;;15.73;100.00
18985;BME280;9626;52.552;13.436;2023-07-31T00:18:28;100503.13;;;15.74;100.00
18985;BME280;9626;52.552;13.436;2023-07-31T00:20:54;100498.97;;;15.66;100.00
18985;BME280;9626;52.552;13.436;2023-07-31T00:23:20;100501.63;;;15.68;100.00
18985;BME280;9626;52.552;13.436;2023-07-31T00:25:46;100504.13;;;15.71;100.00
18985;BME280;9626;52.552;13.436;2023-07-31T00:28:12;100496.06;;;15.72;100.00
18985;BME280;9626;52.552;13.436;2023-07-31T00:30:38;100486.25;;;15.73;100.00
18985;BME280;9626;52.552;13.436;2023-07-31T00:33:04;100484.47;;;15.74;100.00
18985;BME280;9626;52.552;13.436;2023-07-31T00:35:30;100482.41;;;15.80;100.00
18985;BME280;9626;52.552;13.436;2023-07-31T00:37:58;100479.75;;;15.79;100.00
18985;BME280;9626;52.552;13.436;2023-07-31T00:40:24;100482.50;;;15.77;100.00
18985;BME280;9626;52.552;13.436;2023-07-31T00:42:50;100479.75;;;15.80;100.00
18985;BME280;9626;52.552;13.436;2023-07-31T00:45:16;100476.31;;;15.77;100.00
18985;BME280;9626;52.552;13.436;2023-07-31T00:47:42;100474.63;;;15.74;100.00
18985;BME280;9626;52.552;13.436;2023-07-31T00:50:09;100479.03;;;15.75;100.00
18985;BME280;9626;52.552;13.436;2023-07-31T00:52:35;100479.97;;;15.74;100.00
18985;BME280;9626;52.552;13.436;2023-07-31T00:55:03;100477.53;;;15.69;100.00
18985;BME280;9626;52.552;13.436;2023-07-31T00:57:30;100472.25;;;15.68;100.00
18985;BME280;9626;52.552;13.436;2023-07-31T00:59:57;100468.22;;;15.78;100.00
18985;BME280;9626;52.552;13.436;2023-07-31T01:02:23;100468.84;;;15.85;100.00
18985;BME280;9626;52.552;13.436;2023-07-31T01:04:52;100467.44;;;15.76;100.00
18985;BME280;9626;52.552;13.436;2023-07-31T01:10:20;100461.06;;;15.80;100.00
18985;BME280;9626;52.552;13.436;2023-07-31T01:12:51;100466.63;;;15.74;100.00
18985;BME280;9626;52.552;13.436;2023-07-31T01:15:17;100466.63;;;15.74;100.00
18985;BME280;9626;52.552;13.436;2023-07-31T01:17:43;100463.88;;;15.76;100.00
18985;BME280;9626;52.552;13.436;2023-07-31T01:20:22;100467.44;;;15.76;100.00
18985;BME280;9626;52.552;13.436;2023-07-31T01:25:50;100455.03;;;15.75;100.00
18985;BME280;9626;52.552;13.436;2023-07-31T01:28:20;100456.88;;;15.73;100.00
18985;BME280;9626;52.552;13.436;2023-07-31T01:30:51;100467.44;;;15.76;100.00
18985;BME280;9626;52.552;13.436;2023-07-31T01:33:20;100465.84;;;15.72;100.00
18985;BME280;9626;52.552;13.436;2023-07-31T01:35:48;100463.44;;;15.66;100.00
18985;BME280;9626;52.552;13.436;2023-07-31T01:38:14;100463.56;;;15.63;100.00
18985;BME280;9626;52.552;13.436;2023-07-31T01:40:43;100463.56;;;15.63;100.00
18985;BME280;9626;52.552;13.436;2023-07-31T01:43:09;100459.84;;;15.67;100.00
18985;BME280;9626;52.552;13.436;2023-07-31T01:45:36;100451.91;;;15.65;100.00
18985;BME280;9626;52.552;13.436;2023-07-31T01:48:02;100457.31;;;15.64;100.00
18985;BME280;9626;52.552;13.436;2023-07-31T01:50:28;100451.97;;;15.64;100.00
18985;BME280;9626;52.552;13.436;2023-07-31T01:52:54;100455.66;;;15.61;100.00
18985;BME280;9626;52.552;13.436;2023-07-31T01:55:20;100448.63;;;15.59;100.00
18985;BME280;9626;52.552;13.436;2023-07-31T01:57:46;100444.97;;;15.61;100.00
18985;BME280;9626;52.552;13.436;2023-07-31T02:00:12;100444.97;;;15.61;100.00
18985;BME280;9626;52.552;13.436;2023-07-31T02:02:38;100447.56;;;15.63;100.00
18985;BME280;9626;52.552;13.436;2023-07-31T02:05:05;100443.16;;;15.62;100.00
18985;BME280;9626;52.552;13.436;2023-07-31T02:07:31;100438.63;;;15.64;100.00
18985;BME280;9626;52.552;13.436;2023-07-31T02:09:57;100433.16;;;15.67;100.00
18985;BME280;9626;52.552;13.436;2023-07-31T02:12:23;100439.94;;;15.74;100.00
18985;BME280;9626;52.552;13.436;2023-07-31T02:14:49;100433.59;;;15.77;100.00
18985;BME280;9626;52.552;13.436;2023-07-31T02:17:15;100434.38;;;15.79;100.00
18985;BME280;9626;52.552;13.436;2023-07-31T02:19:41;100428.13;;;15.80;100.00
18985;BME280;9626;52.552;13.436;2023-07-31T02:22:07;100440.28;;;15.87;100.00
18985;BME280;9626;52.552;13.436;2023-07-31T02:24:33;100424.97;;;15.91;100.00
18985;BME280;9626;52.552;13.436;2023-07-31T02:26:59;100424.31;;;15.85;100.00
18985;BME280;9626;52.552;13.436;2023-07-31T02:29:25;100422.81;;;15.80;100.00
18985;BME280;9626;52.552;13.436;2023-07-31T02:31:51;100420.19;;;15.78;100.00
18985;BME280;9626;52.552;13.436;2023-07-31T02:34:17;100427.41;;;15.76;100.00
18985;BME280;9626;52.552;13.436;2023-07-31T02:36:43;100424.66;;;15.78;100.00
18985;BME280;9626;52.552;13.436;2023-07-31T02:39:09;100425.66;;;15.75;100.00
18985;BME280;9626;52.552;13.436;2023-07-31T02:41:35;100416.84;;;15.73;100.00
18985;BME280;9626;52.552;13.436;2023-07-31T02:44:01;100409.78;;;15.72;100.00
18985;BME280;9626;52.552;13.436;2023-07-31T02:46:27;100408.06;;;15.71;100.00
18985;BME280;9626;52.552;13.436;2023-07-31T02:48:53;100412.47;;;15.72;100.00
18985;BME280;9626;52.552;13.436;2023-07-31T02:51:19;100411.66;;;15.70;100.00
18985;BME280;9626;52.552;13.436;2023-07-31T02:53:47;100408.97;;;15.70;100.00
18985;BME280;9626;52.552;13.436;2023-07-31T02:56:13;100406.06;;;15.76;100.00
18985;BME280;9626;52.552;13.436;2023-07-31T02:58:39;100401.72;;;15.74;100.00
18985;BME280;9626;52.552;13.436;2023-07-31T03:01:05;100397.22;;;15.74;100.00
18985;BME280;9626;52.552;13.436;2023-07-31T03:03:31;100405.56;;;15.66;100.00
18985;BME280;9626;52.552;13.436;2023-07-31T03:05:57;100407.16;;;15.70;100.00
18985;BME280;9626;52.552;13.436;2023-07-31T03:08:23;100405.47;;;15.69;100.00
18985;BME280;9626;52.552;13.436;2023-07-31T03:10:49;100395.63;;;15.70;100.00
18985;BME280;9626;52.552;13.436;2023-07-31T03:13:15;100405.47;;;15.69;100.00
18985;BME280;9626;52.552;13.436;2023-07-31T03:15:44;100399.13;;;15.72;100.00
18985;BME280;9626;52.552;13.436;2023-07-31T03:18:10;100399.91;;;15.74;100.00
18985;BME280;9626;52.552;13.436;2023-07-31T03:20:36;100396.38;;;15.74;100.00
18985;BME280;9626;52.552;13.436;2023-07-31T03:23:02;100391.75;;;15.77;100.00
18985;BME280;9626;52.552;13.436;2023-07-31T03:25:28;100394.50;;;15.76;100.00
18985;BME280;9626;52.552;13.436;2023-07-31T03:27:54;100390.81;;;15.78;100.00
18985;BME280;9626;52.552;13.436;2023-07-31T03:30:20;100386.31;;;15.80;100.00
18985;BME280;9626;52.552;13.436;2023-07-31T03:32:46;100389.22;;;15.74;100.00
18985;BME280;9626;52.552;13.436;2023-07-31T03:35:12;100387.63;;;15.70;100.00
18985;BME280;9626;52.552;13.436;2023-07-31T03:37:38;100384.75;;;15.75;100.00
18985;BME280;9626;52.552;13.436;2023-07-31T03:40:05;100377.63;;;15.75;100.00
18985;BME280;9626;52.552;13.436;2023-07-31T03:42:31;100383.97;;;15.72;100.00
18985;BME280;9626;52.552;13.436;2023-07-31T03:44:57;100377.03;;;15.68;100.00
18985;BME280;9626;52.552;13.436;2023-07-31T03:47:23;100370.69;;;15.71;100.00
18985;BME280;9626;52.552;13.436;2023-07-31T03:49:49;100376.03;;;15.71;100.00
18985;BME280;9626;52.552;13.436;2023-07-31T03:52:15;100365.34;;;15.71;100.00
18985;BME280;9626;52.552;13.436;2023-07-31T03:54:41;100361.88;;;15.69;100.00
18985;BME280;9626;52.552;13.436;2023-07-31T03:57:10;100363.75;;;15.67;100.00
18985;BME280;9626;52.552;13.436;2023-07-31T03:59:37;100365.63;;;15.65;100.00
18985;BME280;9626;52.552;13.436;2023-07-31T04:02:05;100372.84;;;15.63;100.00
18985;BME280;9626;52.552;13.436;2023-07-31T04:04:31;100363.75;;;15.67;100.00
18985;BME280;9626;52.552;13.436;2023-07-31T04:06:57;100367.22;;;15.69;100.00
18985;BME280;9626;52.552;13.436;2023-07-31T04:09:26;100361.75;;;15.72;100.00
18985;BME280;9626;52.552;13.436;2023-07-31T04:11:52;100362.69;;;15.71;100.00
18985;BME280;9626;52.552;13.436;2023-07-31T04:14:18;100356.34;;;15.74;100.00
18985;BME280;9626;52.552;13.436;2023-07-31T04:16:44;100351.94;;;15.72;100.00
18985;BME280;9626;52.552;13.436;2023-07-31T04:19:10;100357.41;;;15.69;100.00
18985;BME280;9626;52.552;13.436;2023-07-31T04:21:36;100345.16;;;15.65;100.00
18985;BME280;9626;52.552;13.436;2023-07-31T04:24:02;100344.84;;;15.71;100.00
18985;BME280;9626;52.552;13.436;2023-07-31T04:26:28;100349.03;;;15.77;100.00
18985;BME280;9626;52.552;13.436;2023-07-31T04:28:54;100345.44;;;15.78;100.00
18985;BME280;9626;52.552;13.436;2023-07-31T04:31:20;100342.53;;;15.84;100.00
18985;BME280;9626;52.552;13.436;2023-07-31T04:33:46;100344.31;;;15.84;100.00
18985;BME280;9626;52.552;13.436;2023-07-31T04:36:12;100335.44;;;15.83;100.00
18985;BME280;9626;52.552;13.436;2023-07-31T04:38:38;100345.19;;;15.84;100.00
18985;BME280;9626;52.552;13.436;2023-07-31T04:41:04;100341.84;;;15.79;100.00
18985;BME280;9626;52.552;13.436;2023-07-31T04:43:31;100344.50;;;15.79;100.00
18985;BME280;9626;52.552;13.436;2023-07-31T04:45:57;100332.94;;;15.80;100.00
18985;BME280;9626;52.552;13.436;2023-07-31T04:48:23;100334.72;;;15.80;100.00
18985;BME280;9626;52.552;13.436;2023-07-31T04:50:49;100335.44;;;15.83;100.00
18985;BME280;9626;52.552;13.436;2023-07-31T04:53:15;100331.84;;;15.84;100.00
18985;BME280;9626;52.552;13.436;2023-07-31T04:55:41;100337.03;;;15.87;100.00
18985;BME280;9626;52.552;13.436;2023-07-31T04:58:07;100336.22;;;15.85;100.00
18985;BME280;9626;52.552;13.436;2023-07-31T05:00:33;100338.13;;;15.83;100.00
18985;BME280;9626;52.552;13.436;2023-07-31T05:02:59;100340.88;;;15.82;100.00
18985;BME280;9626;52.552;13.436;2023-07-31T05:05:25;100337.31;;;15.81;100.00
18985;BME280;9626;52.552;13.436;2023-07-31T05:07:51;100339.78;;;15.86;100.00
18985;BME280;9626;52.552;13.436;2023-07-31T05:10:17;100341.44;;;15.88;100.00
18985;BME280;9626;52.552;13.436;2023-07-31T05:12:43;100332.47;;;15.89;100.00
18985;BME280;9626;52.552;13.436;2023-07-31T05:15:10;100331.34;;;15.95;100.00
18985;BME280;9626;52.552;13.436;2023-07-31T05:17:36;100340.69;;;16.04;100.00
18985;BME280;9626;52.552;13.436;2023-07-31T05:20:02;100337.38;;;15.99;100.00
18985;BME280;9626;52.552;13.436;2023-07-31T05:22:31;100329.69;;;15.93;100.00
18985;BME280;9626;52.552;13.436;2023-07-31T05:24:57;100328.88;;;15.91;100.00
18985;BME280;9626;52.552;13.436;2023-07-31T05:27:23;100334.53;;;15.84;100.00
18985;BME280;9626;52.552;13.436;2023-07-31T05:29:49;100336.03;;;15.90;100.00
18985;BME280;9626;52.552;13.436;2023-07-31T05:32:15;100329.03;;;15.87;100.00
18985;BME280;9626;52.552;13.436;2023-07-31T05:34:41;100327.44;;;15.83;100.00
18985;BME280;9626;52.552;13.436;2023-07-31T05:37:10;100330.75;;;15.88;100.00
18985;BME280;9626;52.552;13.436;2023-07-31T05:39:36;100324.97;;;15.98;100.00
18985;BME280;9626;52.552;13.436;2023-07-31T05:42:02;100325.28;;;15.92;100.00
18985;BME280;9626;52.552;13.436;2023-07-31T05:44:28;100319.94;;;15.92;100.00
18985;BME280;9626;52.552;13.436;2023-07-31T05:46:54;100321.78;;;15.89;100.00
18985;BME280;9626;52.552;13.436;2023-07-31T05:49:20;100321.78;;;15.89;100.00
18985;BME280;9626;52.552;13.436;2023-07-31T05:51:46;100317.03;;;15.96;100.00
18985;BME280;9626;52.552;13.436;2023-07-31T05:54:12;100318.41;;;16.05;100.00
18985;BME280;9626;52.552;13.436;2023-07-31T05:56:38;100321.06;;;16.05;100.00
18985;BME280;9626;52.552;13.436;2023-07-31T05:59:04;100307.06;;;16.00;100.00
18985;BME280;9626;52.552;13.436;2023-07-31T06:01:30;100311.16;;;16.07;100.00
18985;BME280;9626;52.552;13.436;2023-07-31T06:03:57;100317.00;;;16.15;100.00
18985;BME280;9626;52.552;13.436;2023-07-31T06:06:23;100317.47;;;16.06;100.00
18985;BME280;9626;52.552;13.436;2023-07-31T06:08:49;100315.41;;;16.11;100.00
18985;BME280;9626;52.552;13.436;2023-07-31T06:11:15;100317.00;;;16.15;100.00
18985;BME280;9626;52.552;13.436;2023-07-31T06:13:41;100319.47;;;16.20;100.00
18985;BME280;9626;52.552;13.436;2023-07-31T06:16:10;100318.38;;;16.24;100.00
18985;BME280;9626;52.552;13.436;2023-07-31T06:18:36;100320.03;;;16.27;100.00
18985;BME280;9626;52.552;13.436;2023-07-31T06:21:02;100313.72;;;16.10;100.00
18985;BME280;9626;52.552;13.436;2023-07-31T06:23:28;100313.41;;;16.16;100.00
18985;BME280;9626;52.552;13.436;2023-07-31T06:25:54;100315.28;;;16.14;100.00
18985;BME280;9626;52.552;13.436;2023-07-31T06:28:20;100322.06;;;16.21;100.00
18985;BME280;9626;52.552;13.436;2023-07-31T06:30:47;100318.47;;;16.22;100.00
18985;BME280;9626;52.552;13.436;2023-07-31T06:33:13;100315.84;;;16.21;100.00
18985;BME280;9626;52.552;13.436;2023-07-31T06:35:39;100312.47;;;16.17;100.00
18985;BME280;9626;52.552;13.436;2023-07-31T06:38:05;100317.81;;;16.17;100.00
18985;BME280;9626;52.552;13.436;2023-07-31T06:40:31;100315.59;;;16.08;100.00
18985;BME280;9626;52.552;13.436;2023-07-31T06:42:57;100313.84;;;16.07;100.00
18985;BME280;9626;52.552;13.436;2023-07-31T06:45:23;100314.56;;;16.11;100.00
18985;BME280;9626;52.552;13.436;2023-07-31T06:47:49;100317.00;;;16.15;100.00
18985;BME280;9626;52.552;13.436;2023-07-31T06:50:15;100313.97;;;16.23;100.00
18985;BME280;9626;52.552;13.436;2023-07-31T06:52:41;100315.63;;;16.26;100.00
18985;BME280;9626;52.552;13.436;2023-07-31T06:55:19;100310.13;;;16.29;100.00
18985;BME280;9626;52.552;13.436;2023-07-31T06:57:49;100311.06;;;16.28;100.00
18985;BME280;9626;52.552;13.436;2023-07-31T07:00:16;100304.00;;;16.27;100.00
18985;BME280;9626;52.552;13.436;2023-07-31T07:02:43;100304.78;;;16.29;100.00
18985;BME280;9626;52.552;13.436;2023-07-31T07:05:09;100307.16;;;16.35;100.00
18985;BME280;9626;52.552;13.436;2023-07-31T07:07:36;100309.84;;;16.35;100.00
18985;BME280;9626;52.552;13.436;2023-07-31T07:10:03;100310.31;;;16.43;100.00
18985;BME280;9626;52.552;13.436;2023-07-31T07:12:30;100304.00;;;16.44;100.00
18985;BME280;9626;52.552;13.436;2023-07-31T07:14:57;100310.94;;;16.31;100.00
18985;BME280;9626;52.552;13.436;2023-07-31T07:17:24;100309.03;;;16.33;100.00
18985;BME280;9626;52.552;13.436;2023-07-31T07:19:50;100310.38;;;16.24;100.00
18985;BME280;9626;52.552;13.436;2023-07-31T07:22:17;100302.47;;;16.21;100.00
18985;BME280;9626;52.552;13.436;2023-07-31T07:24:43;100310.28;;;16.26;100.00
18985;BME280;9626;52.552;13.436;2023-07-31T07:27:09;100309.84;;;16.35;100.00
18985;BME280;9626;52.552;13.436;2023-07-31T07:29:38;100313.91;;;16.42;100.00
18985;BME280;9626;52.552;13.436;2023-07-31T07:32:05;100317.53;;;16.41;100.00
18985;BME280;9626;52.552;13.436;2023-07-31T07:34:31;100308.56;;;16.42;100.00
18985;BME280;9626;52.552;13.436;2023-07-31T07:36:57;100305.09;;;16.40;100.00
18985;BME280;9626;52.552;13.436;2023-07-31T07:39:23;100297.09;;;16.40;100.00
18985;BME280;9626;52.552;13.436;2023-07-31T07:41:49;100292.72;;;16.39;100.00
18985;BME280;9626;52.552;13.436;2023-07-31T07:44:15;100305.09;;;16.40;100.00
18985;BME280;9626;52.552;13.436;2023-07-31T07:46:41;100304.09;;;16.43;100.00
18985;BME280;9626;52.552;13.436;2023-07-31T07:49:07;100301.84;;;16.52;100.00
18985;BME280;9626;52.552;13.436;2023-07-31T07:51:33;100289.53;;;16.48;100.00
18985;BME280;9626;52.552;13.436;2023-07-31T07:53:59;100295.84;;;16.47;100.00
18985;BME280;9626;52.552;13.436;2023-07-31T07:56:26;100289.50;;;16.50;100.00
18985;BME280;9626;52.552;13.436;2023-07-31T07:58:53;100282.25;;;16.52;100.00
18985;BME280;9626;52.552;13.436;2023-07-31T08:01:20;100285.94;;;16.49;100.00
18985;BME280;9626;52.552;13.436;2023-07-31T08:03:47;100288.78;;;16.46;100.00
18985;BME280;9626;52.552;13.436;2023-07-31T08:06:14;100276.06;;;16.51;100.00
18985;BME280;9626;52.552;13.436;2023-07-31T08:08:40;100287.22;;;16.60;100.00
18985;BME280;9626;52.552;13.436;2023-07-31T08:11:06;100285.94;;;16.67;100.00
18985;BME280;9626;52.552;13.436;2023-07-31T08:13:35;100286.41;;;16.58;100.00
18985;BME280;9626;52.552;13.436;2023-07-31T08:16:03;100286.41;;;16.40;100.00
18985;BME280;9626;52.552;13.436;2023-07-31T08:18:31;100282.31;;;16.33;100.00
18985;BME280;9626;52.552;13.436;2023-07-31T08:20:59;100279.81;;;16.30;100.00
18985;BME280;9626;52.552;13.436;2023-07-31T08:23:27;100273.81;;;16.25;100.00
18985;BME280;9626;52.552;13.436;2023-07-31T08:25:53;100280.56;;;16.32;100.00
18985;BME280;9626;52.552;13.436;2023-07-31T08:28:19;100282.97;;;16.38;100.00
18985;BME280;9626;52.552;13.436;2023-07-31T08:30:45;100279.97;;;16.44;100.00
18985;BME280;9626;52.552;13.436;2023-07-31T08:33:11;100281.31;;;16.35;100.00
18985;BME280;9626;52.552;13.436;2023-07-31T08:35:56;100271.34;;;16.39;100.00
18985;BME280;9626;52.552;13.436;2023-07-31T08:38:34;100262.34;;;16.40;100.00
18985;BME280;9626;52.552;13.436;2023-07-31T08:41:00;100277.44;;;16.41;100.00
18985;BME280;9626;52.552;13.436;2023-07-31T08:43:27;100273.03;;;16.40;100.00
18985;BME280;9626;52.552;13.436;2023-07-31T08:46:11;100266.69;;;16.43;100.00
18985;BME280;9626;52.552;13.436;2023-07-31T08:48:56;100270.06;;;16.46;100.00
18985;BME280;9626;52.552;13.436;2023-07-31T08:51:43;100270.53;;;16.54;100.00
18985;BME280;9626;52.552;13.436;2023-07-31T08:54:27;100272.03;;;16.60;100.00
18985;BME280;9626;52.552;13.436;2023-07-31T08:57:15;100259.06;;;16.70;100.00
18985;BME280;9626;52.552;13.436;2023-07-31T08:59:42;100261.25;;;16.79;100.00
18985;BME280;9626;52.552;13.436;2023-07-31T09:02:10;100269.09;;;16.82;100.00
18985;BME280;9626;52.552;13.436;2023-07-31T09:04:45;100265.50;;;16.83;100.00
18985;BME280;9626;52.552;13.436;2023-07-31T09:07:12;100272.41;;;16.87;100.00
18985;BME280;9626;52.552;13.436;2023-07-31T09:09:42;100269.72;;;16.87;100.00
18985;BME280;9626;52.552;13.436;2023-07-31T09:12:08;100269.19;;;16.81;100.00
18985;BME280;9626;52.552;13.436;2023-07-31T09:14:34;100268.50;;;16.77;100.00
18985;BME280;9626;52.552;13.436;2023-07-31T09:17:01;100258.56;;;16.79;100.00
18985;BME280;9626;52.552;13.436;2023-07-31T09:19:36;100261.34;;;16.78;100.00
18985;BME280;9626;52.552;13.436;2023-07-31T09:22:34;100257.63;;;16.80;100.00
18985;BME280;9626;52.552;13.436;2023-07-31T09:25:23;100259.69;;;16.93;100.00
18985;BME280;9626;52.552;13.436;2023-07-31T09:28:10;100253.06;;;17.00;100.00
18985;BME280;9626;52.552;13.436;2023-07-31T09:30:48;100256.00;;;16.95;100.00
18985;BME280;9626;52.552;13.436;2023-07-31T09:33:14;100261.09;;;16.82;100.00
18985;BME280;9626;52.552;13.436;2023-07-31T09:35:41;100262.06;;;16.81;100.00
18985;BME280;9626;52.552;13.436;2023-07-31T09:38:25;100262.81;;;16.66;100.00
18985;BME280;9626;52.552;13.436;2023-07-31T09:41:09;100267.03;;;16.54;100.00
18985;BME280;9626;52.552;13.436;2023-07-31T09:43:55;100270.06;;;16.46;100.00
18985;BME280;9626;52.552;13.436;2023-07-31T09:46:39;100267.56;;;16.43;100.00
18985;BME280;9626;52.552;13.436;2023-07-31T09:49:25;100264.66;;;16.48;100.00
18985;BME280;9626;52.552;13.436;2023-07-31T09:51:51;100260.72;;;16.55;100.00
18985;BME280;9626;52.552;13.436;2023-07-31T09:54:17;100269.28;;;16.62;100.00
18985;BME280;9626;52.552;13.436;2023-07-31T09:56:44;100260.25;;;16.64;100.00
18985;BME280;9626;52.552;13.436;2023-07-31T09:59:18;100262.19;;;16.78;100.00
18985;BME280;9626;52.552;13.436;2023-07-31T10:01:45;100250.09;;;16.71;100.00
18985;BME280;9626;52.552;13.436;2023-07-31T10:04:13;100254.41;;;16.73;100.00
18985;BME280;9626;52.552;13.436;2023-07-31T10:06:42;100253.94;;;16.83;100.00
18985;BME280;9626;52.552;13.436;2023-07-31T10:09:10;100242.44;;;16.81;100.00
18985;BME280;9626;52.552;13.436;2023-07-31T10:11:47;100235.47;;;16.96;100.00
18985;BME280;9626;52.552;13.436;2023-07-31T10:14:19;100241.13;;;17.07;100.00
18985;BME280;9626;52.552;13.436;2023-07-31T10:16:47;100239.38;;;17.06;100.00
18985;BME280;9626;52.552;13.436;2023-07-31T10:19:13;100240.31;;;17.05;100.00
18985;BME280;9626;52.552;13.436;2023-07-31T10:21:39;100235.91;;;17.04;100.00
18985;BME280;9626;52.552;13.436;2023-07-31T10:24:07;100236.28;;;17.14;100.00
18985;BME280;9626;52.552;13.436;2023-07-31T10:26:35;100229.91;;;17.16;100.00
18985;BME280;9626;52.552;13.436;2023-07-31T10:29:04;100236.13;;;17.17;100.00
18985;BME280;9626;52.552;13.436;2023-07-31T10:31:31;100235.41;;;17.13;100.00
18985;BME280;9626;52.552;13.436;2023-07-31T10:33:58;100231.09;;;16.95;100.00
18985;BME280;9626;52.552;13.436;2023-07-31T10:36:26;100238.47;;;16.89;100.00
18985;BME280;9626;52.552;13.436;2023-07-31T10:38:55;100234.44;;;16.81;100.00
18985;BME280;9626;52.552;13.436;2023-07-31T10:41:29;100234.13;;;16.87;100.00
18985;BME280;9626;52.552;13.436;2023-07-31T10:44:01;100233.25;;;16.86;100.00
18985;BME280;9626;52.552;13.436;2023-07-31T10:46:28;100232.97;;;16.93;100.00
18985;BME280;9626;52.552;13.436;2023-07-31T10:48:59;100222.44;;;17.05;100.00
18985;BME280;9626;52.552;13.436;2023-07-31T10:51:35;100214.28;;;17.24;100.00
18985;BME280;9626;52.552;13.436;2023-07-31T10:54:13;100199.91;;;17.43;100.00
18985;BME280;9626;52.552;13.436;2023-07-31T10:56:44;100198.88;;;17.62;100.00
18985;BME280;9626;52.552;13.436;2023-07-31T10:59:11;100199.72;;;17.78;100.00
18985;BME280;9626;52.552;13.436;2023-07-31T11:01:54;100186.06;;;17.99;100.00
18985;BME280;9626;52.552;13.436;2023-07-31T11:04:24;100176.63;;;18.07;100.00
18985;BME280;9626;52.552;13.436;2023-07-31T11:07:01;100178.94;;;18.14;100.00
18985;BME280;9626;52.552;13.436;2023-07-31T11:09:30;100179.66;;;18.32;100.00
18985;BME280;9626;52.552;13.436;2023-07-31T11:11:57;100176.44;;;18.41;100.00
18985;BME280;9626;52.552;13.436;2023-07-31T11:14:24;100183.31;;;18.45;100.00
18985;BME280;9626;52.552;13.436;2023-07-31T11:16:50;100183.63;;;18.55;100.00
18985;BME280;9626;52.552;13.436;2023-07-31T11:19:22;100182.47;;;18.59;100.00
18985;BME280;9626;52.552;13.436;2023-07-31T11:21:48;100172.22;;;18.51;100.00
18985;BME280;9626;52.552;13.436;2023-07-31T11:24:14;100165.69;;;18.55;100.00
18985;BME280;9626;52.552;13.436;2023-07-31T11:26:51;100164.13;;;18.82;100.00
18985;BME280;9626;52.552;13.436;2023-07-31T11:29:20;100177.06;;;18.89;100.00
18985;BME280;9626;52.552;13.436;2023-07-31T11:31:47;100173.69;;;19.00;100.00
18985;BME280;9626;52.552;13.436;2023-07-31T11:34:14;100182.34;;;19.05;100.00
18985;BME280;9626;52.552;13.436;2023-07-31T11:36:41;100164.63;;;18.88;100.00
18985;BME280;9626;52.552;13.436;2023-07-31T11:39:10;100160.78;;;18.92;100.00
18985;BME280;9626;52.552;13.436;2023-07-31T11:41:40;100168.06;;;18.90;100.00
18985;BME280;9626;52.552;13.436;2023-07-31T11:44:06;100157.59;;;19.00;100.00
18985;BME280;9626;52.552;13.436;2023-07-31T11:46:32;100173.69;;;19.00;100.00
18985;BME280;9626;52.552;13.436;2023-07-31T11:49:00;100157.50;;;19.02;100.00
18985;BME280;9626;52.552;13.436;2023-07-31T11:51:27;100165.28;;;18.92;100.00
18985;BME280;9626;52.552;13.436;2023-07-31T11:53:57;100176.38;;;19.00;100.00
18985;BME280;9626;52.552;13.436;2023-07-31T11:56:24;100168.53;;;18.97;100.00
18985;BME280;9626;52.552;13.436;2023-07-31T11:58:55;100163.94;;;18.99;100.00
18985;BME280;9626;52.552;13.436;2023-07-31T12:01:23;100152.25;;;19.00;100.00
18985;BME280;9626;52.552;13.436;2023-07-31T12:03:50;100158.88;;;19.09;100.00
18985;BME280;9626;52.552;13.436;2023-07-31T12:06:16;100155.38;;;19.21;100.00
18985;BME280;9626;52.552;13.436;2023-07-31T12:08:42;100152.34;;;19.13;100.00
18985;BME280;9626;52.552;13.436;2023-07-31T12:11:10;100159.44;;;19.00;100.00
18985;BME280;9626;52.552;13.436;2023-07-31T12:13:36;100137.97;;;19.14;100.00
18985;BME280;9626;52.552;13.436;2023-07-31T12:16:03;100149.16;;;19.21;100.00
18985;BME280;9626;52.552;13.436;2023-07-31T12:18:34;100153.50;;;19.09;100.00
18985;BME280;9626;52.552;13.436;2023-07-31T12:21:02;100137.31;;;18.96;100.00
18985;BME280;9626;52.552;13.436;2023-07-31T12:23:33;100147.94;;;18.98;100.00
18985;BME280;9626;52.552;13.436;2023-07-31T12:26:04;100141.78;;;19.10;100.00
18985;BME280;9626;52.552;13.436;2023-07-31T12:28:35;100143.88;;;19.19;100.00
18985;BME280;9626;52.552;13.436;2023-07-31T12:31:01;100139.28;;;19.21;100.00
18985;BME280;9626;52.552;13.436;2023-07-31T12:33:37;100120.06;;;19.42;100.00
18985;BME280;9626;52.552;13.436;2023-07-31T12:36:11;100128.69;;;19.47;100.00
18985;BME280;9626;52.552;13.436;2023-07-31T12:38:37;100132.66;;;19.27;100.00
18985;BME280;9626;52.552;13.436;2023-07-31T12:41:03;100127.19;;;19.29;100.00
18985;BME280;9626;52.552;13.436;2023-07-31T12:43:29;100123.91;;;19.38;100.00
18985;BME280;9626;52.552;13.436;2023-07-31T12:45:55;100119.03;;;19.57;100.00
18985;BME280;9626;52.552;13.436;2023-07-31T12:48:22;100101.41;;;19.53;100.00
18985;BME280;9626;52.552;13.436;2023-07-31T12:50:48;100111.03;;;19.70;100.00